Time;durP1;ratioP1;P1;durP2;ratioP2;P2;SDS_P1;SDS_P2;PMS_P1;PMS_P2;Temp;Humidity;BMP_temperature;BMP_pressure;BME280_temperature;BME280_humidity;BME280_pressure;Samples;Min_cycle;Max_cycle;Signal;HPM_P1;HPM_P2
2022/02/14 00:02:05;;;;;;;7.63;2.80;;;11.00;99.90;;;;;;4955228;29;20491;-80
2022/02/14 00:04:31;;;;;;;7.32;3.00;;;11.00;99.90;;;;;;4956020;28;20046;-82
2022/02/14 00:06:57;;;;;;;8.35;2.33;;;10.90;99.90;;;;;;4956235;28;20034;-81
2022/02/14 00:09:23;;;;;;;8.85;2.55;;;11.00;99.90;;;;;;4955766;28;20023;-81
2022/02/14 00:11:48;;;;;;;7.65;2.60;;;10.90;99.90;;;;;;4955885;28;20078;-81
2022/02/14 00:14:14;;;;;;;8.52;2.40;;;10.90;99.90;;;;;;4955408;29;20101;-81
2022/02/14 00:16:39;;;;;;;9.38;2.53;;;10.90;99.90;;;;;;4955579;28;20031;-81
2022/02/14 00:19:05;;;;;;;6.45;2.67;;;11.00;99.90;;;;;;4955461;28;20035;-81
2022/02/14 00:21:31;;;;;;;8.48;3.28;;;10.90;99.90;;;;;;4955432;28;20031;-81
2022/02/14 00:23:57;;;;;;;7.53;2.72;;;10.90;99.90;;;;;;4956782;28;20026;-82
2022/02/14 00:26:22;;;;;;;9.15;2.63;;;10.90;99.90;;;;;;4954763;28;20034;-81
2022/02/14 00:28:48;;;;;;;5.57;2.40;;;10.80;99.90;;;;;;4955851;28;20431;-82
2022/02/14 00:31:13;;;;;;;12.25;2.97;;;10.80;99.90;;;;;;4955282;28;20519;-82
2022/02/14 00:33:39;;;;;;;9.05;2.50;;;10.70;99.90;;;;;;4955391;28;20070;-82
2022/02/14 00:36:05;;;;;;;6.57;2.72;;;10.80;99.90;;;;;;4955981;28;20028;-82
2022/02/14 00:38:30;;;;;;;9.02;2.60;;;10.70;99.90;;;;;;4955337;28;20023;-82
2022/02/14 00:40:56;;;;;;;9.65;2.63;;;10.70;99.90;;;;;;4954522;29;20066;-82
2022/02/14 00:43:22;;;;;;;14.85;3.30;;;10.70;99.90;;;;;;4940618;29;20031;-82
2022/02/14 00:45:49;;;;;;;9.13;3.70;;;10.70;99.90;;;;;;4955189;28;20118;-82
2022/02/14 00:48:15;;;;;;;9.77;2.88;;;10.70;99.90;;;;;;4955100;28;20102;-82
2022/02/14 00:50:41;;;;;;;11.65;3.58;;;10.70;99.90;;;;;;4954947;28;20039;-82
2022/02/14 00:53:07;;;;;;;8.95;3.13;;;10.70;99.90;;;;;;4954347;29;20027;-81
2022/02/14 00:55:33;;;;;;;8.95;2.92;;;10.70;99.90;;;;;;4954907;28;20042;-82
2022/02/14 00:57:59;;;;;;;6.07;2.58;;;10.70;99.90;;;;;;4955321;28;20035;-82
2022/02/14 01:00:25;;;;;;;10.30;3.08;;;10.70;99.90;;;;;;4955321;28;20019;-82
2022/02/14 01:02:51;;;;;;;9.73;2.63;;;10.60;99.90;;;;;;4954788;28;20047;-82
2022/02/14 01:05:17;;;;;;;8.85;2.90;;;10.60;99.90;;;;;;4953780;29;20027;-81
2022/02/14 01:07:43;;;;;;;9.95;3.00;;;10.60;99.90;;;;;;4956674;28;20500;-82
2022/02/14 01:10:10;;;;;;;7.68;3.38;;;10.60;99.90;;;;;;4954867;28;20106;-82
2022/02/14 01:12:37;;;;;;;6.60;2.70;;;10.60;99.90;;;;;;4954683;28;20063;-82
2022/02/14 01:15:05;;;;;;;12.63;2.92;;;10.70;99.90;;;;;;4954718;28;20689;-82
2022/02/14 01:17:35;;;;;;;10.32;3.03;;;10.60;99.90;;;;;;4955080;28;20035;-82
2022/02/14 01:20:03;;;;;;;9.18;2.70;;;10.60;99.90;;;;;;4938164;29;20040;-82
2022/02/14 01:22:29;;;;;;;10.45;2.78;;;10.60;99.90;;;;;;4954229;28;20121;-81
2022/02/14 01:24:54;;;;;;;10.10;2.90;;;10.60;99.90;;;;;;4954513;28;20517;-82
2022/02/14 01:27:20;;;;;;;9.70;2.95;;;10.50;99.90;;;;;;4954762;28;20027;-82
2022/02/14 01:29:45;;;;;;;10.15;3.00;;;10.60;99.90;;;;;;4954656;28;20054;-81
2022/02/14 01:32:11;;;;;;;11.95;3.20;;;10.70;99.90;;;;;;4953807;29;20050;-82
2022/02/14 01:34:37;;;;;;;8.25;3.00;;;10.20;99.90;;;;;;4954528;28;20023;-82
2022/02/14 01:37:03;;;;;;;5.30;2.70;;;10.20;99.90;;;;;;4954453;28;20062;-82
2022/02/14 01:39:29;;;;;;;5.72;2.58;;;10.20;99.90;;;;;;4954606;28;20038;-82
2022/02/14 01:41:58;;;;;;;7.22;2.30;;;10.30;99.90;;;;;;4954607;28;20150;-82
2022/02/14 01:44:33;;;;;;;9.80;3.08;;;10.40;99.90;;;;;;4936856;28;20055;-82
2022/02/14 01:46:58;;;;;;;8.88;2.95;;;10.30;99.90;;;;;;4951763;29;20035;-81
2022/02/14 01:49:24;;;;;;;11.15;2.85;;;10.70;99.90;;;;;;4954217;28;20396;-82
2022/02/14 01:51:50;;;;;;;8.45;2.83;;;10.30;99.90;;;;;;4954474;28;20031;-82
2022/02/14 01:54:16;;;;;;;9.48;2.50;;;10.40;99.90;;;;;;4954647;28;20027;-82
2022/02/14 01:56:42;;;;;;;9.30;3.20;;;10.40;99.90;;;;;;4954246;28;20488;-82
2022/02/14 01:59:08;;;;;;;10.60;2.83;;;10.40;99.90;;;;;;4953449;29;20031;-82
2022/02/14 02:01:33;;;;;;;9.77;2.58;;;10.40;99.90;;;;;;4954762;28;20047;-80
2022/02/14 02:03:59;;;;;;;9.65;3.25;;;10.40;99.90;;;;;;4953246;28;20035;-81
2022/02/14 02:06:25;;;;;;;7.80;2.70;;;10.40;99.90;;;;;;4958037;28;20035;-82
2022/02/14 02:08:51;;;;;;;7.57;2.75;;;10.30;99.90;;;;;;4958116;28;20046;-82
2022/02/14 02:14:00;;;;;;;8.60;2.78;;;10.10;99.90;;;;;;4955496;29;20037;-82
2022/02/14 02:16:26;;;;;;;7.72;2.58;;;10.00;99.90;;;;;;4957821;28;20035;-81
2022/02/14 02:18:52;;;;;;;9.82;2.85;;;10.20;99.90;;;;;;4957801;28;20027;-81
2022/02/14 02:21:18;;;;;;;7.65;2.40;;;10.30;99.90;;;;;;4957104;28;20098;-81
2022/02/14 02:23:44;;;;;;;8.15;2.88;;;10.30;99.90;;;;;;4958113;28;20033;-82
2022/02/14 02:26:10;;;;;;;11.73;2.85;;;10.30;99.90;;;;;;4957008;29;20395;-82
2022/02/14 02:28:36;;;;;;;8.55;2.95;;;10.30;99.90;;;;;;4957698;28;20126;-82
2022/02/14 02:31:03;;;;;;;8.38;3.00;;;10.40;99.90;;;;;;4957596;28;20126;-81
2022/02/14 02:33:30;;;;;;;9.05;2.28;;;10.30;99.90;;;;;;4957316;28;20129;-82
2022/02/14 02:35:56;;;;;;;5.07;2.40;;;10.30;99.90;;;;;;4957678;28;20031;-82
2022/02/14 02:38:23;;;;;;;10.75;3.05;;;10.30;99.90;;;;;;4957211;28;20086;-82
2022/02/14 02:40:49;;;;;;;8.52;2.97;;;10.40;99.90;;;;;;4957625;28;20455;-82
2022/02/14 02:43:17;;;;;;;8.30;2.90;;;10.00;99.90;;;;;;4957644;28;20055;-82
2022/02/14 02:45:43;;;;;;;7.90;2.90;;;10.00;99.90;;;;;;4957260;28;20109;-82
2022/02/14 02:48:09;;;;;;;7.82;2.80;;;10.00;99.90;;;;;;4957119;28;20055;-82
2022/02/14 02:50:34;;;;;;;7.68;3.10;;;10.00;99.90;;;;;;4957259;28;20058;-82
2022/02/14 02:53:00;;;;;;;4.43;2.40;;;10.00;99.90;;;;;;4956858;28;20046;-82
2022/02/14 02:55:26;;;;;;;11.65;3.28;;;9.90;99.90;;;;;;4957437;28;20027;-81
2022/02/14 02:57:51;;;;;;;6.97;2.83;;;10.50;99.90;;;;;;4957065;28;20039;-82
2022/02/14 03:00:17;;;;;;;9.07;2.70;;;10.00;99.90;;;;;;4957536;28;20066;-82
2022/02/14 03:02:43;;;;;;;8.18;2.75;;;9.90;99.90;;;;;;4956389;28;20050;-82
2022/02/14 03:05:08;;;;;;;7.63;3.13;;;9.90;99.90;;;;;;4956742;29;20063;-81
2022/02/14 03:07:34;;;;;;;6.07;2.58;;;9.90;99.90;;;;;;4956857;28;20051;-82
2022/02/14 03:10:00;;;;;;;5.07;2.58;;;10.00;99.90;;;;;;4957050;28;20031;-81
2022/02/14 03:12:26;;;;;;;3.97;2.20;;;10.00;99.90;;;;;;4956941;28;20516;-81
2022/02/14 03:14:51;;;;;;;5.07;2.50;;;10.50;99.90;;;;;;4955656;28;20110;-81
2022/02/14 03:17:17;;;;;;;7.97;2.60;;;10.20;99.90;;;;;;4955802;28;20407;-81
2022/02/14 03:19:43;;;;;;;4.68;2.20;;;10.20;99.90;;;;;;4956633;28;20077;-82
2022/02/14 03:22:09;;;;;;;5.45;2.33;;;10.20;99.90;;;;;;4956784;28;20122;-81
2022/02/14 03:24:35;;;;;;;4.50;2.33;;;10.30;99.90;;;;;;4956791;28;20657;-82
2022/02/14 03:27:01;;;;;;;4.70;2.22;;;10.60;99.90;;;;;;4956593;28;20082;-81
2022/02/14 03:29:27;;;;;;;6.22;2.45;;;10.50;99.90;;;;;;4956177;28;20070;-82
2022/02/14 03:31:53;;;;;;;3.63;2.15;;;10.50;99.90;;;;;;4956043;28;20039;-82
2022/02/14 03:34:19;;;;;;;5.43;2.10;;;10.60;99.90;;;;;;4956501;28;20043;-81
2022/02/14 03:36:45;;;;;;;4.22;2.13;;;10.60;99.90;;;;;;4956679;28;20035;-82
2022/02/14 03:39:11;;;;;;;4.57;1.98;;;10.60;99.90;;;;;;4956772;28;20428;-81
2022/02/14 03:41:37;;;;;;;6.43;2.08;;;10.60;99.90;;;;;;4956138;28;20131;-82
2022/02/14 03:44:02;;;;;;;3.60;1.60;;;10.60;99.90;;;;;;4955664;29;20103;-81
2022/02/14 03:46:28;;;;;;;4.18;1.92;;;10.70;99.90;;;;;;4956301;28;20031;-81
2022/02/14 03:48:54;;;;;;;5.38;2.20;;;10.60;99.90;;;;;;4956813;28;20023;-82
2022/02/14 03:51:20;;;;;;;3.95;2.08;;;10.60;99.90;;;;;;4956166;28;20035;-82
2022/02/14 03:53:46;;;;;;;6.30;2.10;;;10.70;99.90;;;;;;4956761;28;20022;-82
2022/02/14 03:56:11;;;;;;;4.90;1.50;;;10.70;99.90;;;;;;4955491;29;20381;-82
2022/02/14 03:58:37;;;;;;;3.15;1.70;;;10.70;99.90;;;;;;4956002;28;20112;-82
2022/02/14 04:01:03;;;;;;;4.10;1.80;;;10.70;99.90;;;;;;4956031;28;20035;-81
2022/02/14 04:03:29;;;;;;;3.70;2.08;;;11.00;99.90;;;;;;4956136;28;20027;-82
2022/02/14 04:05:55;;;;;;;6.75;2.95;;;10.70;99.90;;;;;;4956448;28;20063;-81
2022/02/14 04:08:20;;;;;;;6.10;2.28;;;10.70;99.90;;;;;;4955275;28;20388;-82
2022/02/14 04:10:46;;;;;;;5.88;2.00;;;10.60;99.90;;;;;;4955846;28;20035;-82
2022/02/14 04:13:12;;;;;;;6.40;2.03;;;10.60;99.90;;;;;;4956129;28;20113;-82
2022/02/14 04:15:38;;;;;;;5.38;1.92;;;10.60;99.90;;;;;;4955400;28;20035;-82
2022/02/14 04:18:04;;;;;;;3.92;1.95;;;10.60;99.90;;;;;;4956043;28;20046;-82
2022/02/14 04:20:30;;;;;;;5.20;2.30;;;10.50;99.90;;;;;;4955623;28;20051;-82
2022/02/14 04:22:55;;;;;;;4.32;2.30;;;10.60;99.90;;;;;;4939801;29;20030;-82
2022/02/14 04:25:21;;;;;;;5.85;2.22;;;10.50;99.90;;;;;;4955341;28;20122;-81
2022/02/14 04:27:47;;;;;;;3.85;2.10;;;10.50;99.90;;;;;;4955318;28;20019;-82
2022/02/14 04:30:14;;;;;;;6.40;2.60;;;10.60;99.90;;;;;;4955203;28;20118;-82
2022/02/14 04:32:40;;;;;;;4.72;2.10;;;10.40;99.90;;;;;;4955542;28;20038;-82
2022/02/14 04:35:06;;;;;;;5.47;2.20;;;10.50;99.90;;;;;;4955253;29;20031;-82
2022/02/14 04:37:32;;;;;;;5.40;2.53;;;10.50;99.90;;;;;;4956533;28;20045;-82
2022/02/14 04:39:58;;;;;;;8.07;2.25;;;10.50;99.90;;;;;;4955400;28;20027;-82
2022/02/14 04:42:24;;;;;;;6.82;2.38;;;10.60;99.90;;;;;;4955498;28;20058;-82
2022/02/14 04:44:49;;;;;;;7.05;2.60;;;10.50;99.90;;;;;;4955336;28;20037;-82
2022/02/14 04:47:15;;;;;;;7.53;2.78;;;10.50;99.90;;;;;;4954858;29;20014;-82
2022/02/14 04:49:41;;;;;;;5.43;2.65;;;10.50;99.90;;;;;;4955486;28;20506;-82
2022/02/14 04:52:07;;;;;;;4.25;2.13;;;10.50;99.90;;;;;;4954835;28;20579;-81
2022/02/14 04:54:32;;;;;;;4.00;2.15;;;10.40;99.90;;;;;;4940836;29;20388;-84
2022/02/14 04:56:58;;;;;;;7.60;2.78;;;10.40;99.90;;;;;;4954978;28;20043;-84
2022/02/14 04:59:24;;;;;;;7.35;2.70;;;10.50;99.90;;;;;;4953602;28;20491;-84
2022/02/14 05:01:49;;;;;;;8.00;2.60;;;10.50;99.90;;;;;;4955123;28;20148;-83
2022/02/14 05:04:16;;;;;;;5.07;2.22;;;10.60;99.90;;;;;;4955043;28;20039;-83
2022/02/14 05:06:42;;;;;;;4.15;2.90;;;10.60;99.90;;;;;;4954793;28;20024;-84
2022/02/14 05:09:08;;;;;;;7.30;2.53;;;10.50;99.90;;;;;;4955127;28;20038;-83
2022/02/14 05:11:34;;;;;;;4.65;2.50;;;10.50;99.90;;;;;;4954934;28;20035;-84
2022/02/14 05:14:00;;;;;;;10.82;2.78;;;10.50;99.90;;;;;;4953528;29;20034;-83
2022/02/14 05:16:25;;;;;;;5.43;2.45;;;10.40;99.90;;;;;;4954782;28;20027;-81
2022/02/14 05:18:52;;;;;;;7.43;2.83;;;10.50;99.90;;;;;;4954678;28;20054;-82
2022/02/14 05:21:18;;;;;;;7.50;2.88;;;10.40;99.90;;;;;;4954426;28;20070;-80
2022/02/14 05:23:44;;;;;;;8.93;2.95;;;10.50;99.90;;;;;;4954781;28;20487;-81
2022/02/14 05:26:10;;;;;;;5.53;2.33;;;10.60;99.90;;;;;;4954098;29;20597;-81
2022/02/14 05:28:36;;;;;;;4.07;2.30;;;10.50;99.90;;;;;;4954054;28;20059;-82
2022/02/14 05:31:02;;;;;;;5.65;2.33;;;10.50;99.90;;;;;;4939829;29;20505;-80
2022/02/14 05:33:27;;;;;;;5.63;2.50;;;10.50;99.90;;;;;;4954439;28;20037;-82
2022/02/14 05:35:53;;;;;;;6.80;2.70;;;10.50;99.90;;;;;;4954628;28;20031;-81
2022/02/14 05:38:19;;;;;;;6.63;2.78;;;10.50;99.90;;;;;;4953183;28;20377;-81
2022/02/14 05:40:44;;;;;;;6.32;2.33;;;10.50;99.90;;;;;;4954187;28;20078;-82
2022/02/14 05:43:10;;;;;;;6.53;2.30;;;10.50;99.90;;;;;;4955381;28;20031;-81
2022/02/14 05:45:36;;;;;;;10.88;2.85;;;10.50;99.90;;;;;;4955349;28;20031;-82
2022/02/14 05:48:01;;;;;;;7.40;2.42;;;10.60;99.90;;;;;;4954665;28;20559;-81
2022/02/14 05:50:27;;;;;;;6.97;2.55;;;10.60;99.90;;;;;;4954039;28;20055;-81
2022/02/14 05:52:53;;;;;;;8.70;3.20;;;10.60;99.90;;;;;;4953760;28;20031;-81
2022/02/14 05:55:18;;;;;;;6.63;2.80;;;10.60;99.90;;;;;;4954332;28;20035;-81
2022/02/14 05:57:44;;;;;;;6.85;2.60;;;10.60;99.90;;;;;;4954014;28;20028;-82
2022/02/14 06:00:10;;;;;;;5.80;2.95;;;10.60;99.90;;;;;;4954354;28;20031;-84
2022/02/14 06:02:36;;;;;;;8.68;2.90;;;10.60;99.90;;;;;;4954138;28;20523;-83
2022/02/14 06:05:06;;;;;;;8.63;2.60;;;10.50;99.90;;;;;;4953326;29;20050;-80
2022/02/14 06:07:32;;;;;;;9.25;2.83;;;10.50;99.90;;;;;;4954119;28;20038;-84
2022/02/14 06:09:59;;;;;;;8.75;3.25;;;10.50;99.90;;;;;;4954343;28;20499;-82
2022/02/14 06:12:24;;;;;;;8.80;2.80;;;10.40;99.90;;;;;;4953769;28;20031;-82
2022/02/14 06:14:50;;;;;;;10.02;3.08;;;10.50;99.90;;;;;;4953999;28;20089;-80
2022/02/14 06:17:16;;;;;;;6.82;2.90;;;10.50;99.90;;;;;;4953523;29;20049;-82
2022/02/14 06:19:42;;;;;;;9.30;2.70;;;10.50;99.90;;;;;;4953594;28;20416;-82
2022/02/14 06:22:08;;;;;;;9.73;3.05;;;10.70;99.90;;;;;;4954096;28;20035;-82
2022/02/14 06:24:33;;;;;;;4.35;2.38;;;10.50;99.90;;;;;;4939164;29;20059;-81
2022/02/14 06:26:59;;;;;;;10.20;2.92;;;10.50;99.90;;;;;;4953698;28;20028;-82
2022/02/14 06:29:25;;;;;;;11.57;3.63;;;10.60;99.90;;;;;;4953851;28;20027;-81
2022/02/14 06:31:50;;;;;;;8.77;3.00;;;10.60;99.90;;;;;;4953985;28;20035;-83
2022/02/14 06:34:16;;;;;;;15.02;5.53;;;10.60;99.90;;;;;;4939214;29;20449;-82
2022/02/14 06:36:41;;;;;;;6.85;3.40;;;10.60;99.90;;;;;;4953956;28;20038;-82
2022/02/14 06:39:09;;;;;;;8.43;2.78;;;10.60;99.90;;;;;;4954286;28;20447;-82
2022/02/14 06:41:34;;;;;;;8.68;3.35;;;10.60;99.90;;;;;;4953955;28;20381;-82
2022/02/14 06:44:00;;;;;;;11.52;3.20;;;10.70;99.90;;;;;;4952997;29;20111;-81
2022/02/14 06:46:26;;;;;;;7.80;2.78;;;10.70;99.90;;;;;;4954045;28;20451;-81
2022/02/14 06:48:51;;;;;;;8.40;2.78;;;10.60;99.90;;;;;;4954378;28;20472;-82
2022/02/14 06:51:17;;;;;;;7.95;2.78;;;10.70;99.90;;;;;;4957097;28;20042;-82
2022/02/14 06:53:44;;;;;;;6.32;2.80;;;10.60;99.90;;;;;;4957317;28;20551;-82
2022/02/14 06:56:10;;;;;;;6.18;3.33;;;10.70;99.90;;;;;;4956263;29;20731;-81
2022/02/14 06:58:37;;;;;;;8.40;3.53;;;11.10;99.90;;;;;;4956958;28;20035;-82
2022/02/14 07:01:04;;;;;;;8.55;3.08;;;10.70;99.90;;;;;;4957642;28;20110;-80
2022/02/14 07:03:30;;;;;;;12.25;3.13;;;10.80;99.90;;;;;;4956863;28;20385;-81
2022/02/14 07:05:56;;;;;;;7.55;2.80;;;10.70;99.90;;;;;;4957228;28;20086;-82
2022/02/14 07:08:22;;;;;;;10.07;3.08;;;10.80;99.90;;;;;;4956304;28;20031;-82
2022/02/14 07:10:47;;;;;;;5.80;3.05;;;10.80;99.90;;;;;;4956559;28;20085;-82
2022/02/14 07:13:13;;;;;;;7.05;2.58;;;10.90;99.90;;;;;;4957476;28;20381;-82
2022/02/14 07:15:39;;;;;;;7.40;3.20;;;11.10;99.90;;;;;;4956777;28;20042;-82
2022/02/14 07:18:13;;;;;;;9.13;2.65;;;11.00;99.90;;;;;;4954528;28;20039;-82
2022/02/14 07:20:40;;;;;;;7.45;2.92;;;10.90;99.90;;;;;;4948658;28;20535;-81
2022/02/14 07:23:06;;;;;;;8.85;2.67;;;11.00;99.90;;;;;;4955499;29;20134;-85
2022/02/14 07:25:32;;;;;;;9.02;3.10;;;10.90;99.90;;;;;;4956405;28;20125;-82
2022/02/14 07:27:58;;;;;;;11.90;2.97;;;10.90;99.90;;;;;;4956697;28;20031;-82
2022/02/14 07:30:24;;;;;;;8.15;3.17;;;10.90;99.90;;;;;;4956660;28;20050;-82
2022/02/14 07:32:50;;;;;;;10.98;2.92;;;10.90;99.90;;;;;;4956374;28;20062;-82
2022/02/14 07:35:16;;;;;;;8.13;3.10;;;10.90;99.90;;;;;;4956018;29;20035;-81
2022/02/14 07:37:44;;;;;;;10.80;2.88;;;10.90;99.90;;;;;;4955875;28;20081;-82
2022/02/14 07:40:13;;;;;;;8.75;3.00;;;10.90;99.90;;;;;;4956151;28;20098;-81
2022/02/14 07:42:39;;;;;;;7.20;2.50;;;10.90;99.90;;;;;;4957677;28;20035;-81
2022/02/14 07:45:06;;;;;;;13.73;3.28;;;10.90;99.90;;;;;;4956703;28;20031;-82
2022/02/14 07:47:32;;;;;;;11.15;4.05;;;10.90;99.90;;;;;;4955830;28;20095;-82
2022/02/14 07:49:58;;;;;;;10.02;3.28;;;10.90;99.90;;;;;;4953683;29;20027;-82
2022/02/14 07:52:24;;;;;;;10.10;3.08;;;11.00;99.90;;;;;;4955663;28;20558;-82
2022/02/14 07:54:50;;;;;;;9.38;3.30;;;11.10;99.90;;;;;;4955894;28;20023;-82
2022/02/14 07:57:15;;;;;;;8.38;2.67;;;11.00;99.90;;;;;;4956708;28;20090;-81
2022/02/14 07:59:41;;;;;;;12.70;3.03;;;11.00;99.90;;;;;;4938938;28;20027;-81
2022/02/14 08:02:07;;;;;;;9.13;3.90;;;11.10;99.90;;;;;;4954419;28;20110;-82
2022/02/14 08:04:33;;;;;;;9.07;2.90;;;11.00;99.90;;;;;;4956098;28;20035;-82
2022/02/14 08:06:58;;;;;;;5.50;3.08;;;11.00;99.90;;;;;;4955915;28;20491;-81
2022/02/14 08:09:24;;;;;;;9.70;3.10;;;11.00;99.90;;;;;;4955827;28;20047;-82
2022/02/14 08:11:50;;;;;;;121.10;8.45;;;11.00;99.90;;;;;;4955639;28;20042;-82
2022/02/14 08:14:15;;;;;;;8.30;2.75;;;11.10;99.90;;;;;;4955713;29;20027;-81
2022/02/14 08:16:41;;;;;;;6.28;3.00;;;11.10;99.90;;;;;;4955346;28;20329;-82
2022/02/14 08:19:07;;;;;;;9.38;2.92;;;11.10;99.90;;;;;;4955417;28;20387;-82
2022/02/14 08:21:34;;;;;;;9.27;4.85;;;11.10;99.90;;;;;;4941356;29;20043;-82
2022/02/14 08:24:01;;;;;;;6.25;2.78;;;11.20;99.90;;;;;;4955652;28;20365;-82
2022/02/14 08:26:27;;;;;;;7.45;2.67;;;11.20;99.90;;;;;;4954689;28;20418;-81
2022/02/14 08:28:52;;;;;;;7.43;3.20;;;11.30;99.90;;;;;;4955203;28;20146;-82
2022/02/14 08:31:18;;;;;;;10.75;3.13;;;11.30;99.90;;;;;;4955031;28;20586;-82
2022/02/14 08:33:44;;;;;;;8.60;2.97;;;11.30;99.90;;;;;;4955952;28;20027;-82
2022/02/14 08:36:10;;;;;;;10.93;3.25;;;11.40;99.90;;;;;;4954911;28;20090;-82
2022/02/14 08:38:36;;;;;;;10.63;3.20;;;11.40;99.90;;;;;;4955257;28;20042;-82
2022/02/14 08:41:03;;;;;;;9.48;3.08;;;11.50;99.90;;;;;;4954713;29;20031;-81
2022/02/14 08:43:29;;;;;;;9.18;2.92;;;11.40;99.90;;;;;;4954907;28;20546;-82
2022/02/14 08:45:54;;;;;;;11.68;2.38;;;11.40;99.90;;;;;;4955276;28;20031;-82
2022/02/14 08:48:20;;;;;;;14.15;8.73;;;11.40;99.90;;;;;;4955667;28;20098;-82
2022/02/14 08:50:46;;;;;;;19.80;10.70;;;11.70;99.90;;;;;;4939411;28;20558;-85
2022/02/14 08:53:12;;;;;;;9.27;3.28;;;11.50;99.90;;;;;;4954832;29;20031;-85
2022/02/14 08:55:37;;;;;;;7.90;3.08;;;11.50;99.90;;;;;;4955067;28;20042;-84
2022/02/14 08:58:03;;;;;;;9.90;3.28;;;11.50;99.90;;;;;;4954996;28;20031;-84
2022/02/14 09:00:29;;;;;;;6.13;2.60;;;11.50;99.90;;;;;;4955728;28;20399;-84
2022/02/14 09:02:55;;;;;;;6.55;2.45;;;11.50;99.90;;;;;;4955038;28;20031;-83
2022/02/14 09:05:23;;;;;;;10.57;3.30;;;11.50;99.90;;;;;;4953707;28;20534;-84
2022/02/14 09:07:49;;;;;;;8.35;2.90;;;11.60;99.90;;;;;;4954725;28;20023;-84
2022/02/14 09:10:16;;;;;;;5.63;2.78;;;11.60;99.90;;;;;;4955545;28;20118;-85
2022/02/14 09:12:42;;;;;;;7.47;2.78;;;11.60;99.90;;;;;;4953841;28;20031;-85
2022/02/14 09:15:08;;;;;;;6.03;3.30;;;11.60;99.90;;;;;;4955334;28;20089;-84
2022/02/14 09:17:34;;;;;;;6.07;2.78;;;11.60;99.90;;;;;;4954841;28;20070;-83
2022/02/14 09:20:00;;;;;;;9.07;3.00;;;11.50;99.90;;;;;;4953526;28;20051;-83
2022/02/14 09:22:26;;;;;;;11.55;3.35;;;11.60;99.90;;;;;;4955033;28;20038;-83
2022/02/14 09:24:51;;;;;;;6.03;3.10;;;11.60;99.90;;;;;;4954660;28;20496;-84
2022/02/14 09:27:17;;;;;;;9.15;3.85;;;11.80;99.90;;;;;;4955317;28;20023;-85
2022/02/14 09:29:43;;;;;;;8.15;3.05;;;11.50;99.90;;;;;;4955629;28;20037;-83
2022/02/14 09:32:08;;;;;;;9.52;3.05;;;11.50;99.90;;;;;;4954192;28;20125;-77
2022/02/14 09:34:34;;;;;;;40.50;5.45;;;11.40;99.90;;;;;;4954313;28;20122;-80
2022/02/14 09:36:59;;;;;;;96.40;10.98;;;12.30;99.90;;;;;;4954727;28;20558;-74
2022/02/14 09:39:30;;;;;;;359.45;56.10;;;13.70;99.90;;;;;;4953927;28;20034;-68
2022/02/14 09:42:04;;;;;;;154.45;22.25;;;14.20;99.90;;;;;;4954545;28;20046;-69
2022/02/14 09:44:30;;;;;;;162.75;23.73;;;14.70;99.90;;;;;;4954142;28;20031;-73
2022/02/14 09:46:57;;;;;;;173.10;27.77;;;15.10;99.90;;;;;;4954108;28;20041;-75
2022/02/14 09:49:24;;;;;;;181.82;26.23;;;15.40;99.90;;;;;;4953890;28;20035;-68
2022/02/14 09:51:53;;;;;;;175.75;27.23;;;15.60;99.90;;;;;;4954756;28;20123;-68
2022/02/14 09:54:18;;;;;;;160.07;25.83;;;15.80;99.90;;;;;;4955883;28;20019;-74
2022/02/14 09:56:44;;;;;;;144.00;22.23;;;16.00;99.90;;;;;;4954090;28;20082;-70
2022/02/14 09:59:11;;;;;;;120.15;21.67;;;16.20;99.90;;;;;;4953247;29;20023;-70
2022/02/14 10:01:37;;;;;;;122.88;21.55;;;16.30;99.90;;;;;;4954643;28;20591;-72
2022/02/14 10:04:04;;;;;;;127.40;19.02;;;16.40;99.90;;;;;;4953649;28;20110;-70
2022/02/14 10:06:31;;;;;;;113.00;19.83;;;16.50;99.90;;;;;;4954454;28;20074;-78
2022/02/14 10:09:22;;;;;;;94.93;17.33;;;16.60;99.90;;;;;;4954259;28;20031;-66
2022/02/14 10:12:01;;;;;;;97.70;15.90;;;16.70;99.90;;;;;;4942866;28;20063;-67
2022/02/14 10:14:28;;;;;;;86.97;15.38;;;16.80;99.90;;;;;;4950598;28;20035;-72
2022/02/14 10:17:08;;;;;;;86.68;15.65;;;16.80;99.90;;;;;;4953935;28;20035;-68
2022/02/14 10:19:45;;;;;;;76.57;13.27;;;16.80;99.90;;;;;;4953859;28;20134;-70
2022/02/14 10:22:11;;;;;;;65.82;13.65;;;16.90;99.90;;;;;;4954531;28;20046;-75
2022/02/14 10:24:41;;;;;;;71.95;12.73;;;17.00;99.90;;;;;;4955634;28;20403;-72
2022/02/14 10:27:07;;;;;;;59.88;11.50;;;17.00;99.90;;;;;;4942975;29;20034;-76
2022/02/14 10:29:33;;;;;;;54.40;11.18;;;17.00;99.90;;;;;;4957581;28;20035;-71
2022/02/14 10:32:15;;;;;;;41.40;9.82;;;17.10;99.90;;;;;;4938065;29;20040;-77
2022/02/14 10:34:48;;;;;;;45.63;10.07;;;17.10;99.90;;;;;;4958154;28;20403;-73
2022/02/14 10:37:16;;;;;;;40.60;9.63;;;17.20;99.90;;;;;;4957990;28;20031;-74
2022/02/14 10:39:43;;;;;;;42.42;8.73;;;17.20;99.90;;;;;;4957928;28;20118;-74
2022/02/14 10:42:14;;;;;;;43.65;8.93;;;17.20;99.90;;;;;;4957845;28;20040;-72
2022/02/14 10:47:30;;;;;;;43.15;9.02;;;17.20;99.90;;;;;;4954108;28;20069;-73
2022/02/14 10:50:03;;;;;;;37.85;8.55;;;17.30;99.90;;;;;;4956706;28;20054;-70
2022/02/14 10:52:49;;;;;;;33.85;7.88;;;17.30;99.90;;;;;;4957823;28;20407;-73
2022/02/14 10:55:21;;;;;;;35.20;8.02;;;17.30;99.90;;;;;;4957879;28;20024;-69
2022/02/14 10:57:48;;;;;;;32.97;5.00;;;17.40;99.90;;;;;;4956912;28;20064;-73
2022/02/14 11:00:16;;;;;;;65.70;7.20;;;16.60;99.90;;;;;;4957617;28;20034;-70
2022/02/14 11:02:46;;;;;;;188.18;15.68;;;16.10;99.90;;;;;;4957352;28;20094;-73
2022/02/14 11:05:13;;;;;;;118.95;11.85;;;15.80;99.90;;;;;;4956487;28;20109;-76
2022/02/14 11:07:40;;;;;;;74.85;9.15;;;15.80;99.90;;;;;;4956646;28;20024;-68
2022/02/14 11:10:09;;;;;;;53.92;7.25;;;15.80;99.90;;;;;;4957626;28;20038;-74
2022/02/14 11:12:39;;;;;;;36.97;5.90;;;15.60;99.90;;;;;;4956941;28;20059;-68
2022/02/14 11:15:07;;;;;;;54.25;8.15;;;15.60;99.90;;;;;;4956539;28;20492;-66
2022/02/14 11:17:34;;;;;;;11.32;6.57;;;16.10;99.90;;;;;;4956602;28;20114;-85
2022/02/14 11:20:05;;;;;;;4.00;2.20;;;15.40;99.90;;;;;;4954179;29;20047;-85
2022/02/14 11:22:39;;;;;;;8.63;7.65;;;12.60;99.90;;;;;;4957993;28;20028;-85
2022/02/14 11:25:17;;;;;;;7.55;2.30;;;11.20;99.90;;;;;;4956633;28;20118;-84
2022/02/14 11:28:10;;;;;;;2.92;2.33;;;10.30;99.90;;;;;;4956793;28;20031;-84
2022/02/14 11:30:36;;;;;;;10.10;3.92;;;9.80;99.90;;;;;;4950307;28;20046;-84
2022/02/14 11:33:10;;;;;;;3.63;1.52;;;9.60;99.90;;;;;;4956383;28;20039;-82
2022/02/14 11:35:37;;;;;;;7.50;1.90;;;9.60;99.90;;;;;;4955474;28;20019;-82
2022/02/14 11:38:05;;;;;;;6.10;1.45;;;9.30;99.90;;;;;;4955555;29;20424;-82
2022/02/14 11:40:35;;;;;;;5.05;1.30;;;9.30;99.90;;;;;;4956074;28;20503;-82
2022/02/14 11:43:09;;;;;;;8.23;1.40;;;9.30;99.90;;;;;;4956968;28;20027;-82
2022/02/14 11:45:36;;;;;;;7.57;1.42;;;9.10;99.90;;;;;;4955879;28;20023;-82
2022/02/14 11:48:25;;;;;;;3.92;1.20;;;9.20;99.90;;;;;;4956056;28;20455;-82
2022/02/14 11:51:07;;;;;;;13.15;1.90;;;9.10;99.90;;;;;;4941248;28;20042;-83
2022/02/14 11:53:36;;;;;;;4.07;1.35;;;9.20;99.90;;;;;;4956348;28;20046;-83
2022/02/14 11:56:20;;;;;;;5.03;1.20;;;9.20;99.90;;;;;;4953406;29;20034;-82
2022/02/14 11:59:07;;;;;;;23.40;3.00;;;9.00;99.90;;;;;;4958023;28;20046;-72
2022/02/14 12:01:35;;;;;;;18.10;3.58;;;11.00;99.90;;;;;;4955946;28;20041;-74
2022/02/14 12:04:38;;;;;;;2.35;0.90;;;12.30;99.90;;;;;;4956794;28;20502;-90
2022/02/14 12:07:25;;;;;;;10.23;1.63;;;11.00;99.90;;;;;;4960232;28;20041;-88
2022/02/14 12:09:57;;;;;;;6.47;1.45;;;10.50;99.90;;;;;;4958729;28;20558;-93
2022/02/14 12:12:59;;;;;;;4.47;1.30;;;10.10;99.90;;;;;;4957263;28;20492;-89
2022/02/14 12:20:44;;;;;;;7.75;1.40;;;9.80;99.90;;;;;;4956987;28;20058;-87
2022/02/14 12:23:09;;;;;;;7.75;1.52;;;9.90;99.90;;;;;;4957049;28;20035;-90
2022/02/14 12:25:46;;;;;;;8.02;1.30;;;9.80;99.90;;;;;;4956906;28;20122;-91
2022/02/14 12:28:12;;;;;;;2.05;1.20;;;9.90;99.90;;;;;;4956693;28;20042;-92
2022/02/14 12:30:42;;;;;;;4.03;1.30;;;10.00;99.90;;;;;;4958930;28;20023;-90
2022/02/14 12:33:08;;;;;;;5.38;1.73;;;10.00;99.90;;;;;;4956660;28;20055;-89
2022/02/14 12:35:50;;;;;;;2.80;1.58;;;10.10;99.90;;;;;;4955205;28;20036;-88
2022/02/14 12:38:16;;;;;;;2.38;1.20;;;10.00;99.90;;;;;;4951296;29;20128;-88
2022/02/14 12:41:18;;;;;;;7.68;2.08;;;10.10;99.90;;;;;;4957675;28;20631;-88
2022/02/14 12:43:46;;;;;;;3.70;1.48;;;10.00;99.90;;;;;;4955749;28;20043;-87
2022/02/14 12:46:18;;;;;;;4.68;1.58;;;10.20;99.90;;;;;;4956054;28;20027;-88
2022/02/14 12:48:46;;;;;;;3.13;1.60;;;10.10;99.90;;;;;;4955595;28;20476;-90
2022/02/14 12:51:26;;;;;;;1.67;1.27;;;10.40;99.90;;;;;;4957532;28;20047;-90
2022/02/14 12:53:52;;;;;;;2.45;1.30;;;10.20;99.90;;;;;;4941047;28;20061;-89
2022/02/14 12:56:34;;;;;;;73.00;6.00;;;10.10;99.90;;;;;;4955335;29;20062;-88